sensor_id;sensor_type;location;lat;lon;timestamp;pressure;altitude;pressure_sealevel;temperature;humidity
84496;BME280;74855;51.206;17.408;2024-02-26T00:01:04;98759.50;;;2.39;73.82
84496;BME280;74855;51.206;17.408;2024-02-26T00:06:02;98767.25;;;2.33;74.48
84496;BME280;74855;51.206;17.408;2024-02-26T00:10:58;98764.84;;;2.31;74.24
84496;BME280;74855;51.206;17.408;2024-02-26T00:15:53;98757.03;;;2.31;75.29
84496;BME280;74855;51.206;17.408;2024-02-26T00:20:49;98755.00;;;2.27;74.39
84496;BME280;74855;51.206;17.408;2024-02-26T00:25:46;98761.59;;;2.23;75.03
84496;BME280;74855;51.206;17.408;2024-02-26T00:30:42;98757.53;;;2.14;75.06
84496;BME280;74855;51.206;17.408;2024-02-26T00:35:38;98759.72;;;2.10;75.19
84496;BME280;74855;51.206;17.408;2024-02-26T00:40:34;98760.88;;;2.08;75.23
84496;BME280;74855;51.206;17.408;2024-02-26T00:45:31;98756.84;;;2.05;75.80
84496;BME280;74855;51.206;17.408;2024-02-26T00:50:27;98760.09;;;2.07;75.44
84496;BME280;74855;51.206;17.408;2024-02-26T00:55:23;98742.69;;;2.08;75.62
84496;BME280;74855;51.206;17.408;2024-02-26T01:00:19;98741.72;;;2.09;76.05
84496;BME280;74855;51.206;17.408;2024-02-26T01:05:16;98738.31;;;2.08;75.89
84496;BME280;74855;51.206;17.408;2024-02-26T01:10:14;98742.88;;;2.06;75.67
84496;BME280;74855;51.206;17.408;2024-02-26T01:15:10;98737.09;;;2.04;75.74
84496;BME280;74855;51.206;17.408;2024-02-26T01:20:06;98742.47;;;2.03;76.07
84496;BME280;74855;51.206;17.408;2024-02-26T01:25:04;98742.47;;;2.03;76.07
84496;BME280;74855;51.206;17.408;2024-02-26T01:30:00;98733.06;;;2.01;75.62
84496;BME280;74855;51.206;17.408;2024-02-26T01:34:58;98730.63;;;2.00;76.66
84496;BME280;74855;51.206;17.408;2024-02-26T01:39:54;98734.03;;;2.00;76.11
84496;BME280;74855;51.206;17.408;2024-02-26T01:44:51;98734.84;;;2.01;76.74
84496;BME280;74855;51.206;17.408;2024-02-26T01:49:47;98731.03;;;1.97;76.83
84496;BME280;74855;51.206;17.408;2024-02-26T01:54:45;98731.84;;;1.97;76.02
84496;BME280;74855;51.206;17.408;2024-02-26T01:59:41;98715.81;;;1.94;76.85
84496;BME280;74855;51.206;17.408;2024-02-26T02:04:39;98723.78;;;1.92;77.41
84496;BME280;74855;51.206;17.408;2024-02-26T02:09:35;98726.78;;;1.89;77.38
84496;BME280;74855;51.206;17.408;2024-02-26T02:14:30;98722.56;;;1.88;76.51
84496;BME280;74855;51.206;17.408;2024-02-26T02:19:26;98717.56;;;1.87;76.43
84496;BME280;74855;51.206;17.408;2024-02-26T02:24:23;98711.94;;;1.83;77.29
84496;BME280;74855;51.206;17.408;2024-02-26T02:29:19;98710.09;;;1.77;76.99
84496;BME280;74855;51.206;17.408;2024-02-26T02:34:15;98711.09;;;1.76;76.50
84496;BME280;74855;51.206;17.408;2024-02-26T02:39:11;98717.44;;;1.74;77.15
84496;BME280;74855;51.206;17.408;2024-02-26T02:44:09;98715.88;;;1.73;77.24
84496;BME280;74855;51.206;17.408;2024-02-26T02:49:08;98714.44;;;1.70;77.46
84496;BME280;74855;51.206;17.408;2024-02-26T02:54:04;98711.41;;;1.67;77.67
84496;BME280;74855;51.206;17.408;2024-02-26T02:59:00;98715.19;;;1.64;77.03
84496;BME280;74855;51.206;17.408;2024-02-26T03:03:57;98720.56;;;1.63;77.29
84496;BME280;74855;51.206;17.408;2024-02-26T03:08:52;98719.59;;;1.64;77.13
84496;BME280;74855;51.206;17.408;2024-02-26T03:13:48;98710.81;;;1.65;77.35
84496;BME280;74855;51.206;17.408;2024-02-26T03:18:44;98711.41;;;1.67;78.27
84496;BME280;74855;51.206;17.408;2024-02-26T03:23:41;98709.06;;;1.72;77.64
84496;BME280;74855;51.206;17.408;2024-02-26T03:28:37;98703.91;;;1.78;77.98
84496;BME280;74855;51.206;17.408;2024-02-26T03:33:33;98711.81;;;1.91;78.12
84496;BME280;74855;51.206;17.408;2024-02-26T03:38:29;98702.72;;;2.09;78.28
84496;BME280;74855;51.206;17.408;2024-02-26T03:43:26;98705.63;;;2.27;78.94
84496;BME280;74855;51.206;17.408;2024-02-26T03:48:22;98709.72;;;2.42;78.25
84496;BME280;74855;51.206;17.408;2024-02-26T03:53:18;98709.56;;;2.57;78.42
84496;BME280;74855;51.206;17.408;2024-02-26T03:58:13;98695.78;;;2.70;78.18
84496;BME280;74855;51.206;17.408;2024-02-26T04:03:11;98704.84;;;2.80;78.41
84496;BME280;74855;51.206;17.408;2024-02-26T04:08:06;98695.66;;;2.91;78.28
84496;BME280;74855;51.206;17.408;2024-02-26T04:13:02;98699.50;;;3.02;78.29
84496;BME280;74855;51.206;17.408;2024-02-26T04:17:58;98693.09;;;3.04;78.09
84496;BME280;74855;51.206;17.408;2024-02-26T04:22:55;98697.53;;;3.10;77.87
84496;BME280;74855;51.206;17.408;2024-02-26T04:27:51;98701.94;;;3.16;77.73
84496;BME280;74855;51.206;17.408;2024-02-26T04:32:46;98708.56;;;3.12;77.71
84496;BME280;74855;51.206;17.408;2024-02-26T04:37:42;98701.72;;;3.05;77.57
84496;BME280;74855;51.206;17.408;2024-02-26T04:42:39;98700.50;;;2.94;77.79
84496;BME280;74855;51.206;17.408;2024-02-26T04:47:35;98707.47;;;2.87;78.53
84496;BME280;74855;51.206;17.408;2024-02-26T04:52:33;98693.22;;;2.76;78.65
84496;BME280;74855;51.206;17.408;2024-02-26T04:57:29;98713.47;;;2.81;78.53
84496;BME280;74855;51.206;17.408;2024-02-26T05:02:26;98715.47;;;2.86;78.50
84496;BME280;74855;51.206;17.408;2024-02-26T05:07:21;98710.88;;;2.88;78.20
84496;BME280;74855;51.206;17.408;2024-02-26T05:12:17;98715.09;;;2.95;78.55
84496;BME280;74855;51.206;17.408;2024-02-26T05:17:12;98712.72;;;2.94;78.62
84496;BME280;74855;51.206;17.408;2024-02-26T05:22:10;98716.09;;;2.88;78.34
84496;BME280;74855;51.206;17.408;2024-02-26T05:27:06;98717.66;;;2.82;78.25
84496;BME280;74855;51.206;17.408;2024-02-26T05:32:02;98714.03;;;2.76;77.87
84496;BME280;74855;51.206;17.408;2024-02-26T05:36:59;98722.06;;;2.75;78.38
84496;BME280;74855;51.206;17.408;2024-02-26T05:41:56;98729.25;;;2.73;78.15
84496;BME280;74855;51.206;17.408;2024-02-26T05:46:53;98726.84;;;2.71;77.92
84496;BME280;74855;51.206;17.408;2024-02-26T05:51:48;98733.66;;;2.72;78.15
84496;BME280;74855;51.206;17.408;2024-02-26T05:56:44;98732.47;;;2.75;77.91
84496;BME280;74855;51.206;17.408;2024-02-26T06:01:41;98732.88;;;2.78;78.12
84496;BME280;74855;51.206;17.408;2024-02-26T06:06:37;98743.13;;;2.87;78.58
84496;BME280;74855;51.206;17.408;2024-02-26T06:11:32;98747.16;;;3.02;78.58
84496;BME280;74855;51.206;17.408;2024-02-26T06:16:28;98753.81;;;3.18;79.00
84496;BME280;74855;51.206;17.408;2024-02-26T06:21:25;98760.25;;;3.35;78.44
84496;BME280;74855;51.206;17.408;2024-02-26T06:26:21;98755.69;;;3.50;78.84
84496;BME280;74855;51.206;17.408;2024-02-26T06:31:16;98759.13;;;3.71;78.17
84496;BME280;74855;51.206;17.408;2024-02-26T06:36:12;98761.75;;;3.90;78.34
84496;BME280;74855;51.206;17.408;2024-02-26T06:41:09;98767.94;;;4.16;78.08
84496;BME280;74855;51.206;17.408;2024-02-26T06:46:05;98766.69;;;4.38;78.13
84496;BME280;74855;51.206;17.408;2024-02-26T06:51:02;98763.66;;;4.61;78.23
84496;BME280;74855;51.206;17.408;2024-02-26T06:55:57;98766.56;;;4.84;77.94
84496;BME280;74855;51.206;17.408;2024-02-26T07:00:55;98767.88;;;5.06;78.16
84496;BME280;74855;51.206;17.408;2024-02-26T07:05:50;98766.94;;;5.32;77.36
84496;BME280;74855;51.206;17.408;2024-02-26T07:10:46;98767.41;;;5.54;77.41
84496;BME280;74855;51.206;17.408;2024-02-26T07:15:42;98776.56;;;5.70;76.90
84496;BME280;74855;51.206;17.408;2024-02-26T07:20:39;98777.22;;;5.90;76.83
84496;BME280;74855;51.206;17.408;2024-02-26T07:25:41;98780.44;;;6.17;77.00
84496;BME280;74855;51.206;17.408;2024-02-26T07:30:37;98779.78;;;6.46;76.38
84496;BME280;74855;51.206;17.408;2024-02-26T07:35:32;98780.44;;;6.78;75.78
84496;BME280;74855;51.206;17.408;2024-02-26T07:40:30;98779.59;;;7.14;75.07
84496;BME280;74855;51.206;17.408;2024-02-26T07:45:26;98778.28;;;7.53;74.22
84496;BME280;74855;51.206;17.408;2024-02-26T07:50:21;98790.09;;;7.85;73.44
84496;BME280;74855;51.206;17.408;2024-02-26T07:55:17;98788.31;;;8.21;72.56
84496;BME280;74855;51.206;17.408;2024-02-26T08:00:15;98795.09;;;8.63;71.97
84496;BME280;74855;51.206;17.408;2024-02-26T08:05:11;98804.28;;;9.01;70.72
84496;BME280;74855;51.206;17.408;2024-02-26T08:10:07;98805.63;;;9.43;69.93
84496;BME280;74855;51.206;17.408;2024-02-26T08:15:04;98800.59;;;9.87;68.93
84496;BME280;74855;51.206;17.408;2024-02-26T08:20:02;98799.50;;;10.50;67.27
84496;BME280;74855;51.206;17.408;2024-02-26T08:24:58;98807.78;;;11.18;66.16
84496;BME280;74855;51.206;17.408;2024-02-26T08:29:53;98805.28;;;11.82;64.34
84496;BME280;74855;51.206;17.408;2024-02-26T08:34:49;98809.66;;;12.35;62.08
84496;BME280;74855;51.206;17.408;2024-02-26T08:39:46;98807.13;;;12.98;60.99
84496;BME280;74855;51.206;17.408;2024-02-26T08:44:42;98801.78;;;13.70;60.01
84496;BME280;74855;51.206;17.408;2024-02-26T08:49:42;98801.56;;;14.53;57.91
84496;BME280;74855;51.206;17.408;2024-02-26T08:54:38;98799.16;;;15.36;55.91
84496;BME280;74855;51.206;17.408;2024-02-26T08:59:38;98789.00;;;16.21;53.41
84496;BME280;74855;51.206;17.408;2024-02-26T09:04:33;98801.53;;;18.14;49.69
84496;BME280;74855;51.206;17.408;2024-02-26T09:09:29;98798.72;;;20.42;45.60
84496;BME280;74855;51.206;17.408;2024-02-26T09:14:25;98804.25;;;22.36;41.54
84496;BME280;74855;51.206;17.408;2024-02-26T09:19:23;98796.06;;;24.00;38.39
84496;BME280;74855;51.206;17.408;2024-02-26T09:24:19;98798.22;;;26.01;35.40
84496;BME280;74855;51.206;17.408;2024-02-26T09:29:14;98798.34;;;27.46;30.79
84496;BME280;74855;51.206;17.408;2024-02-26T09:34:10;98801.28;;;28.56;29.86
84496;BME280;74855;51.206;17.408;2024-02-26T09:39:07;98803.06;;;29.77;28.34
84496;BME280;74855;51.206;17.408;2024-02-26T09:44:04;98788.84;;;30.57;25.41
84496;BME280;74855;51.206;17.408;2024-02-26T09:49:00;98805.84;;;31.57;24.79
84496;BME280;74855;51.206;17.408;2024-02-26T09:53:59;98796.00;;;32.21;24.87
84496;BME280;74855;51.206;17.408;2024-02-26T09:58:57;98805.00;;;32.53;23.17
84496;BME280;74855;51.206;17.408;2024-02-26T10:03:54;98813.56;;;32.23;22.03
84496;BME280;74855;51.206;17.408;2024-02-26T10:08:51;98806.53;;;32.19;22.45
84496;BME280;74855;51.206;17.408;2024-02-26T10:13:48;98797.59;;;32.40;21.88
84496;BME280;74855;51.206;17.408;2024-02-26T10:18:48;98796.06;;;32.63;20.46
84496;BME280;74855;51.206;17.408;2024-02-26T10:23:46;98803.06;;;32.47;20.15
84496;BME280;74855;51.206;17.408;2024-02-26T10:28:42;98813.25;;;32.82;20.63
84496;BME280;74855;51.206;17.408;2024-02-26T10:33:41;98816.28;;;33.48;19.29
84496;BME280;74855;51.206;17.408;2024-02-26T10:38:39;98806.94;;;33.17;18.53
84496;BME280;74855;51.206;17.408;2024-02-26T10:43:35;98803.06;;;33.07;19.25
84496;BME280;74855;51.206;17.408;2024-02-26T10:48:31;98798.41;;;33.00;19.30
84496;BME280;74855;51.206;17.408;2024-02-26T10:53:29;98796.03;;;33.10;19.15
84496;BME280;74855;51.206;17.408;2024-02-26T10:58:27;98789.38;;;33.39;18.44
84496;BME280;74855;51.206;17.408;2024-02-26T11:03:24;98794.41;;;33.44;18.88
84496;BME280;74855;51.206;17.408;2024-02-26T11:08:21;98790.50;;;33.52;18.46
84496;BME280;74855;51.206;17.408;2024-02-26T11:13:18;98780.06;;;34.13;18.37
84496;BME280;74855;51.206;17.408;2024-02-26T11:18:16;98779.09;;;33.68;18.35
84496;BME280;74855;51.206;17.408;2024-02-26T11:23:13;98766.19;;;33.75;18.53
84496;BME280;74855;51.206;17.408;2024-02-26T11:28:12;98765.38;;;33.86;18.72
84496;BME280;74855;51.206;17.408;2024-02-26T11:33:09;98759.38;;;34.64;18.17
84496;BME280;74855;51.206;17.408;2024-02-26T11:38:07;98758.03;;;34.86;17.58
84496;BME280;74855;51.206;17.408;2024-02-26T11:43:03;98750.16;;;35.29;18.18
84496;BME280;74855;51.206;17.408;2024-02-26T11:48:01;98757.44;;;35.43;17.68
84496;BME280;74855;51.206;17.408;2024-02-26T11:58:09;98740.28;;;34.97;17.51
84496;BME280;74855;51.206;17.408;2024-02-26T12:03:05;98749.25;;;34.02;17.71
84496;BME280;74855;51.206;17.408;2024-02-26T12:08:02;98755.41;;;31.98;19.33
84496;BME280;74855;51.206;17.408;2024-02-26T12:12:59;98748.66;;;30.91;20.26
84496;BME280;74855;51.206;17.408;2024-02-26T12:17:58;98741.09;;;30.67;20.71
84496;BME280;74855;51.206;17.408;2024-02-26T12:22:56;98732.50;;;27.61;23.11
84496;BME280;74855;51.206;17.408;2024-02-26T12:27:51;98742.34;;;25.22;25.10
84496;BME280;74855;51.206;17.408;2024-02-26T12:32:48;98736.44;;;23.56;27.21
84496;BME280;74855;51.206;17.408;2024-02-26T12:37:46;98735.00;;;22.50;28.83
84496;BME280;74855;51.206;17.408;2024-02-26T12:42:42;98738.75;;;22.20;29.80
84496;BME280;74855;51.206;17.408;2024-02-26T12:47:38;98731.00;;;22.10;30.03
84496;BME280;74855;51.206;17.408;2024-02-26T12:52:34;98729.34;;;24.18;28.16
84496;BME280;74855;51.206;17.408;2024-02-26T12:57:34;98733.22;;;23.42;28.67
84496;BME280;74855;51.206;17.408;2024-02-26T13:02:31;98740.25;;;22.85;28.95
84496;BME280;74855;51.206;17.408;2024-02-26T13:07:28;98744.94;;;22.03;29.82
84496;BME280;74855;51.206;17.408;2024-02-26T13:12:23;98734.22;;;21.51;31.00
84496;BME280;74855;51.206;17.408;2024-02-26T13:17:22;98740.00;;;21.10;31.67
84496;BME280;74855;51.206;17.408;2024-02-26T13:22:20;98733.09;;;20.53;32.07
84496;BME280;74855;51.206;17.408;2024-02-26T13:27:21;98742.75;;;21.45;31.14
84496;BME280;74855;51.206;17.408;2024-02-26T13:32:17;98750.69;;;23.07;29.29
84496;BME280;74855;51.206;17.408;2024-02-26T13:37:14;98747.22;;;24.22;27.92
84496;BME280;74855;51.206;17.408;2024-02-26T13:42:10;98736.38;;;24.67;26.87
84496;BME280;74855;51.206;17.408;2024-02-26T13:47:06;98737.41;;;25.51;25.85
84496;BME280;74855;51.206;17.408;2024-02-26T13:52:01;98738.81;;;26.17;25.89
84496;BME280;74855;51.206;17.408;2024-02-26T13:56:58;98744.66;;;27.13;24.76
84496;BME280;74855;51.206;17.408;2024-02-26T14:01:56;98739.88;;;26.91;23.91
84496;BME280;74855;51.206;17.408;2024-02-26T14:06:52;98744.31;;;24.27;26.71
84496;BME280;74855;51.206;17.408;2024-02-26T14:11:48;98750.72;;;22.31;29.11
84496;BME280;74855;51.206;17.408;2024-02-26T14:16:46;98738.41;;;21.01;30.83
84496;BME280;74855;51.206;17.408;2024-02-26T14:21:42;98741.00;;;20.05;32.36
84496;BME280;74855;51.206;17.408;2024-02-26T14:26:38;98736.50;;;18.83;33.87
84496;BME280;74855;51.206;17.408;2024-02-26T14:31:33;98735.50;;;18.06;36.19
84496;BME280;74855;51.206;17.408;2024-02-26T14:36:31;98744.47;;;17.64;37.26
84496;BME280;74855;51.206;17.408;2024-02-26T14:41:26;98738.00;;;17.33;37.58
84496;BME280;74855;51.206;17.408;2024-02-26T14:46:22;98734.44;;;17.00;38.24
84496;BME280;74855;51.206;17.408;2024-02-26T14:51:18;98736.88;;;16.72;39.58
84496;BME280;74855;51.206;17.408;2024-02-26T14:56:15;98734.44;;;16.52;40.12
84496;BME280;74855;51.206;17.408;2024-02-26T15:01:11;98722.91;;;16.33;41.07
84496;BME280;74855;51.206;17.408;2024-02-26T15:06:07;98741.38;;;16.24;41.75
84496;BME280;74855;51.206;17.408;2024-02-26T15:11:08;98734.66;;;16.03;42.36
84496;BME280;74855;51.206;17.408;2024-02-26T15:16:06;98736.91;;;15.91;42.62
84496;BME280;74855;51.206;17.408;2024-02-26T15:21:02;98740.41;;;15.81;43.10
84496;BME280;74855;51.206;17.408;2024-02-26T15:25:57;98752.16;;;15.75;43.18
84496;BME280;74855;51.206;17.408;2024-02-26T15:30:53;98750.44;;;15.50;44.18
84496;BME280;74855;51.206;17.408;2024-02-26T15:35:50;98763.56;;;15.32;44.79
84496;BME280;74855;51.206;17.408;2024-02-26T15:40:46;98768.19;;;15.16;45.27
84496;BME280;74855;51.206;17.408;2024-02-26T15:45:42;98772.53;;;14.87;45.71
84496;BME280;74855;51.206;17.408;2024-02-26T15:50:38;98774.25;;;14.57;46.41
84496;BME280;74855;51.206;17.408;2024-02-26T15:55:35;98780.34;;;14.32;47.24
84496;BME280;74855;51.206;17.408;2024-02-26T16:00:31;98776.69;;;14.08;48.16
84496;BME280;74855;51.206;17.408;2024-02-26T16:05:27;98785.94;;;13.85;48.88
84496;BME280;74855;51.206;17.408;2024-02-26T16:10:22;98786.19;;;13.69;49.21
84496;BME280;74855;51.206;17.408;2024-02-26T16:15:20;98781.91;;;13.47;50.10
84496;BME280;74855;51.206;17.408;2024-02-26T16:20:17;98792.44;;;13.32;50.55
84496;BME280;74855;51.206;17.408;2024-02-26T16:25:14;98791.56;;;13.11;50.35
84496;BME280;74855;51.206;17.408;2024-02-26T16:30:10;98793.03;;;12.87;50.77
84496;BME280;74855;51.206;17.408;2024-02-26T16:35:08;98802.91;;;12.55;51.69
84496;BME280;74855;51.206;17.408;2024-02-26T16:40:05;98805.94;;;12.31;51.97
84496;BME280;74855;51.206;17.408;2024-02-26T16:45:01;98814.13;;;11.98;52.70
84496;BME280;74855;51.206;17.408;2024-02-26T16:49:57;98810.69;;;11.71;54.11
84496;BME280;74855;51.206;17.408;2024-02-26T16:54:55;98814.94;;;11.45;54.17
84496;BME280;74855;51.206;17.408;2024-02-26T16:59:51;98826.19;;;11.13;54.92
84496;BME280;74855;51.206;17.408;2024-02-26T17:04:47;98817.88;;;10.83;55.16
84496;BME280;74855;51.206;17.408;2024-02-26T17:09:43;98825.03;;;10.66;55.52
84496;BME280;74855;51.206;17.408;2024-02-26T17:14:41;98830.88;;;10.51;56.20
84496;BME280;74855;51.206;17.408;2024-02-26T17:19:36;98840.69;;;10.39;57.08
84496;BME280;74855;51.206;17.408;2024-02-26T17:24:32;98845.25;;;10.27;57.54
84496;BME280;74855;51.206;17.408;2024-02-26T17:29:28;98851.03;;;10.12;56.99
84496;BME280;74855;51.206;17.408;2024-02-26T17:34:29;98862.28;;;9.91;58.16
84496;BME280;74855;51.206;17.408;2024-02-26T17:39:26;98863.09;;;9.80;58.89
84496;BME280;74855;51.206;17.408;2024-02-26T17:44:23;98863.50;;;9.72;59.01
84496;BME280;74855;51.206;17.408;2024-02-26T17:49:19;98873.91;;;9.66;59.35
84496;BME280;74855;51.206;17.408;2024-02-26T17:54:16;98867.22;;;9.59;59.66
84496;BME280;74855;51.206;17.408;2024-02-26T17:59:12;98867.59;;;9.51;59.77
84496;BME280;74855;51.206;17.408;2024-02-26T18:04:07;98873.69;;;9.40;60.01
84496;BME280;74855;51.206;17.408;2024-02-26T18:09:03;98872.91;;;9.28;60.46
84496;BME280;74855;51.206;17.408;2024-02-26T18:14:00;98883.66;;;9.26;61.16
84496;BME280;74855;51.206;17.408;2024-02-26T18:18:56;98883.88;;;9.24;62.04
84496;BME280;74855;51.206;17.408;2024-02-26T18:23:52;98890.19;;;9.23;61.94
84496;BME280;74855;51.206;17.408;2024-02-26T18:28:48;98882.06;;;9.25;62.31
84496;BME280;74855;51.206;17.408;2024-02-26T18:33:46;98890.28;;;9.29;62.68
84496;BME280;74855;51.206;17.408;2024-02-26T18:38:42;98896.47;;;9.34;63.26
84496;BME280;74855;51.206;17.408;2024-02-26T18:43:38;98886.97;;;9.33;63.25
84496;BME280;74855;51.206;17.408;2024-02-26T18:48:34;98903.16;;;9.42;62.97
84496;BME280;74855;51.206;17.408;2024-02-26T18:53:33;98897.78;;;9.48;63.33
84496;BME280;74855;51.206;17.408;2024-02-26T18:58:28;98904.28;;;9.57;64.36
84496;BME280;74855;51.206;17.408;2024-02-26T19:03:25;98916.28;;;9.65;63.85
84496;BME280;74855;51.206;17.408;2024-02-26T19:08:21;98913.25;;;9.73;64.40
84496;BME280;74855;51.206;17.408;2024-02-26T19:13:18;98923.09;;;9.78;64.98
84496;BME280;74855;51.206;17.408;2024-02-26T19:18:14;98926.63;;;9.83;64.71
84496;BME280;74855;51.206;17.408;2024-02-26T19:23:10;98938.50;;;9.86;65.19
84496;BME280;74855;51.206;17.408;2024-02-26T19:28:06;98935.31;;;9.84;65.56
84496;BME280;74855;51.206;17.408;2024-02-26T19:33:03;98939.78;;;9.83;65.44
84496;BME280;74855;51.206;17.408;2024-02-26T19:38:00;98945.72;;;9.90;65.79
84496;BME280;74855;51.206;17.408;2024-02-26T19:42:56;98945.50;;;9.92;65.96
84496;BME280;74855;51.206;17.408;2024-02-26T19:47:52;98958.16;;;9.95;66.19
84496;BME280;74855;51.206;17.408;2024-02-26T19:52:51;98937.94;;;9.84;65.98
84496;BME280;74855;51.206;17.408;2024-02-26T19:57:46;98954.06;;;9.87;66.39
84496;BME280;74855;51.206;17.408;2024-02-26T20:02:42;98953.09;;;9.77;67.05
84496;BME280;74855;51.206;17.408;2024-02-26T20:07:38;98956.97;;;9.74;67.19
84496;BME280;74855;51.206;17.408;2024-02-26T20:12:36;98958.34;;;9.77;67.77
84496;BME280;74855;51.206;17.408;2024-02-26T20:17:32;98960.28;;;9.81;67.69
84496;BME280;74855;51.206;17.408;2024-02-26T20:22:28;98963.47;;;9.83;67.44
84496;BME280;74855;51.206;17.408;2024-02-26T20:27:23;98970.34;;;9.84;67.97
84496;BME280;74855;51.206;17.408;2024-02-26T20:32:21;98966.34;;;9.82;67.57
84496;BME280;74855;51.206;17.408;2024-02-26T20:37:17;98968.50;;;9.85;67.74
84496;BME280;74855;51.206;17.408;2024-02-26T20:42:13;98979.84;;;9.85;68.14
84496;BME280;74855;51.206;17.408;2024-02-26T20:47:11;98979.84;;;9.85;68.03
84496;BME280;74855;51.206;17.408;2024-02-26T20:52:09;98986.59;;;9.81;67.91
84496;BME280;74855;51.206;17.408;2024-02-26T20:57:05;98976.69;;;9.72;68.22
84496;BME280;74855;51.206;17.408;2024-02-26T21:02:02;98991.22;;;9.62;68.25
84496;BME280;74855;51.206;17.408;2024-02-26T21:06:58;99000.72;;;9.52;67.91
84496;BME280;74855;51.206;17.408;2024-02-26T21:11:55;99008.97;;;9.32;68.11
84496;BME280;74855;51.206;17.408;2024-02-26T21:16:51;99009.44;;;9.17;68.64
84496;BME280;74855;51.206;17.408;2024-02-26T21:21:47;99021.34;;;9.08;68.47
84496;BME280;74855;51.206;17.408;2024-02-26T21:26:42;99021.44;;;9.02;68.64
84496;BME280;74855;51.206;17.408;2024-02-26T21:31:40;99022.78;;;8.93;68.95
84496;BME280;74855;51.206;17.408;2024-02-26T21:36:36;99039.47;;;8.87;68.93
84496;BME280;74855;51.206;17.408;2024-02-26T21:41:31;99039.22;;;8.76;69.09
84496;BME280;74855;51.206;17.408;2024-02-26T21:46:27;99047.84;;;8.65;69.20
84496;BME280;74855;51.206;17.408;2024-02-26T21:51:24;99037.31;;;8.54;69.46
84496;BME280;74855;51.206;17.408;2024-02-26T21:56:21;99045.97;;;8.42;69.76
84496;BME280;74855;51.206;17.408;2024-02-26T22:01:17;99058.63;;;8.27;70.04
84496;BME280;74855;51.206;17.408;2024-02-26T22:06:12;99056.97;;;8.15;70.27
84496;BME280;74855;51.206;17.408;2024-02-26T22:11:10;99066.03;;;8.00;70.06
84496;BME280;74855;51.206;17.408;2024-02-26T22:16:06;99071.81;;;7.91;70.37
84496;BME280;74855;51.206;17.408;2024-02-26T22:21:01;99069.03;;;7.86;70.31
84496;BME280;74855;51.206;17.408;2024-02-26T22:25:57;99067.63;;;7.83;70.47
84496;BME280;74855;51.206;17.408;2024-02-26T22:30:54;99065.81;;;7.84;70.79
84496;BME280;74855;51.206;17.408;2024-02-26T22:35:50;99076.31;;;7.84;70.96
84496;BME280;74855;51.206;17.408;2024-02-26T22:40:46;99078.13;;;7.83;70.60
84496;BME280;74855;51.206;17.408;2024-02-26T22:45:42;99088.84;;;7.82;71.08
84496;BME280;74855;51.206;17.408;2024-02-26T22:50:39;99096.34;;;7.78;71.07
84496;BME280;74855;51.206;17.408;2024-02-26T22:55:35;99099.78;;;7.79;71.02
84496;BME280;74855;51.206;17.408;2024-02-26T23:00:30;99101.41;;;7.80;71.36
84496;BME280;74855;51.206;17.408;2024-02-26T23:05:27;99098.53;;;7.81;71.34
84496;BME280;74855;51.206;17.408;2024-02-26T23:10:24;99107.22;;;7.82;71.29
84496;BME280;74855;51.206;17.408;2024-02-26T23:15:20;99110.06;;;7.80;71.38
84496;BME280;74855;51.206;17.408;2024-02-26T23:20:16;99115.38;;;7.74;71.48
84496;BME280;74855;51.206;17.408;2024-02-26T23:25:13;99119.69;;;7.68;71.68
84496;BME280;74855;51.206;17.408;2024-02-26T23:30:12;99120.75;;;7.60;71.57
84496;BME280;74855;51.206;17.408;2024-02-26T23:35:09;99119.00;;;7.54;71.46
84496;BME280;74855;51.206;17.408;2024-02-26T23:40:07;99136.19;;;7.44;71.39
84496;BME280;74855;51.206;17.408;2024-02-26T23:45:04;99124.81;;;7.32;71.50
84496;BME280;74855;51.206;17.408;2024-02-26T23:50:01;99126.50;;;7.19;71.62
84496;BME280;74855;51.206;17.408;2024-02-26T23:54:58;99129.03;;;7.08;71.36
84496;BME280;74855;51.206;17.408;2024-02-26T23:59:53;99133.13;;;6.97;71.67
